Data for 07/10/2006

Time Sea-Level Adjusted Pressure Absolute Pressure Temperature Relative Humidity Dew Point   
(mb) (inHg) (mb) (inHg) (C) (F) (%) (C) (F)
00:05 1017 30.03 847 25.01 16.9 62.5 46 5.2 41.4
00:10 1017 30.03 847 25.01 17 62.6 46 5.4 41.7
00:15 1017 30.03 847 25.01 17 62.5 45 5.1 41.1
00:20 1017 30.03 846 24.98 16.7 62.1 50 6.4 43.4
00:25 1017 30.03 846 24.98 16.5 61.6 48 5.7 42.2
00:30 1017 30.03 846 24.98 16.8 62.3 47 5.6 42.1
00:35 1017 30.03 846 24.98 16.6 61.9 47 5.2 41.4
00:40 1017 30.03 846 24.98 17.2 63 46 5.6 42.1
00:45 1017 30.03 846 24.98 16.9 62.5 48 5.8 42.5
00:50 1017 30.03 846 24.98 17 62.6 45 5.1 41.1
00:55 1017 30.03 846 24.98 17 62.7 46 5.4 41.7
01:00 1017 30.03 846 24.98 16.9 62.3 48 6 42.7
01:05 1017 30.03 846 24.98 16.6 61.9 52 7 44.5
01:10 1017 30.03 846 24.98 16.1 60.9 51 6 42.8
01:15 1017 30.03 846 24.98 15.8 60.5 50 5.5 42
01:20 1017 30.03 846 24.98 15.8 60.4 50 5.5 42
01:25 1017 30.03 846 24.98 15.7 60.3 55 6.9 44.4
01:30 1017 30.03 846 24.98 15.9 60.6 51 5.8 42.5
01:35 1017 30.03 846 24.98 16 60.8 51 6.1 42.9
01:40 1017 30.03 846 24.98 15.5 59.9 53 6.2 43.2
01:45 1017 30.03 846 24.98 15.5 59.9 53 6 42.8
01:50 1017 30.03 846 24.98 15.8 60.4 49 5.1 41.3
01:55 1017 30.03 846 24.98 16.2 61.2 48 5.2 41.3
02:00 1017 30.03 846 24.98 16.3 61.3 49 5.6 42.1
02:05 1017 30.03 846 24.98 16.2 61.1 55 7.3 45.1
02:10 1017 30.03 846 24.98 16 60.8 48 5.2 41.3
02:15 1017 30.03 846 24.98 16 60.8 49 5.3 41.5
02:20 1017 30.03 846 24.98 15.8 60.4 52 6.1 43
02:25 1017 30.03 846 24.98 15.5 59.9 53 6.1 42.9
02:30 1017 30.03 846 24.98 15.2 59.3 53 5.9 42.5
02:35 1017 30.03 846 24.98 15.2 59.3 52 5.5 42
02:40 1017 30.03 846 24.98 15.7 60.2 50 5.4 41.7
02:45 1017 30.03 846 24.98 15.1 59.3 57 6.7 44.1
02:50 1017 30.03 846 24.98 14.3 57.7 57 6 42.8
02:55 1017 30.03 846 24.98 14.4 57.9 56 5.8 42.5
03:00 1017 30.03 846 24.98 14.2 57.5 56 5.6 42
03:05 1017 30.03 846 24.98 14.6 58.3 57 6.3 43.3
03:10 1017 30.03 846 24.98 14.3 57.7 57 5.9 42.6
03:15 1017 30.03 846 24.98 14 57.2 57 5.7 42.2
03:20 1017 30.03 846 24.98 14.4 57.9 55 5.4 41.8
03:25 1017 30.03 846 24.98 14.7 58.4 53 5.2 41.3
03:30 1017 30.03 846 24.98 14.8 58.6 53 5.5 41.9
03:35 1017 30.03 846 24.98 14.5 58.1 55 5.5 42
03:40 1017 30.03 846 24.98 14.2 57.6 55 5.4 41.7
03:45 1017 30.03 846 24.98 14.2 57.6 54 5.2 41.3
03:50 1016 30 846 24.98 14.1 57.4 55 5.4 41.7
03:55 1016 30 846 24.98 13.7 56.7 58 5.6 42.1
04:00 1016 30 846 24.98 13.6 56.5 57 5.2 41.4
04:05 1016 30 846 24.98 13.6 56.4 56 5.1 41.2
04:10 1016 30 846 24.98 13.8 56.8 54 4.8 40.7
04:15 1016 30 846 24.98 13.8 56.8 56 5.2 41.4
04:20 1016 30 846 24.98 13.5 56.3 56 4.9 40.9
04:25 1016 30 846 24.98 13.6 56.5 55 4.7 40.5
04:30 1016 30 845 24.95 13.9 56.9 54 4.8 40.7
04:35 1016 30 845 24.95 14 57.2 54 4.8 40.7
04:40 1016 30 845 24.95 14 57.3 54 4.9 40.9
04:45 1016 30 845 24.95 14.1 57.4 53 4.7 40.4
04:50 1016 30 845 24.95 14.3 57.7 53 4.8 40.7
04:55 1016 30 845 24.95 14.2 57.5 53 4.7 40.5
05:00 1016 30 845 24.95 14.3 57.7 52 4.8 40.6
05:05 1016 30 845 24.95 14 57.2 55 5.2 41.4
05:10 1016 30 845 24.95 13.6 56.4 56 5 40.9
05:15 1016 30 845 24.95 13.9 57.1 53 4.5 40.1
05:20 1016 30 846 24.98 14.6 58.2 51 4.6 40.2
05:25 1016 30 845 24.95 14.8 58.6 51 4.9 40.7
05:30 1016 30 845 24.95 14.7 58.4 53 5.2 41.4
05:35 1016 30 845 24.95 14.6 58.2 52 5 41.1
05:40 1016 30 845 24.95 14.4 58 53 4.9 40.9
05:45 1016 30 845 24.95 14.4 57.8 54 5.1 41.2
05:50 1016 30 845 24.95 14.3 57.8 55 5.4 41.6
05:55 1016 30 845 24.95 14.4 57.9 53 5.1 41.1
06:00 1016 30 845 24.95 14.2 57.6 55 5.3 41.6
06:05 1016 30 845 24.95 13.8 56.8 55 5 41.1
06:10 1016 30 845 24.95 14.1 57.3 53 4.6 40.3
06:15 1016 30 845 24.95 14.8 58.6 50 4.4 39.9
06:20 1016 30 845 24.95 15.4 59.8 48 4.6 40.3
06:25 1016 30 845 24.95 15.4 59.7 50 5 40.9
06:30 1016 30 845 24.95 14.9 58.7 52 5.3 41.5
06:35 1016 30 846 24.98 14.8 58.6 55 5.8 42.4
06:40 1016 30 846 24.98 14.9 58.9 53 5.5 41.8
06:45 1016 30 846 24.98 15.1 59.1 52 5.5 41.8
06:50 1017 30.03 846 24.98 15.1 59.2 52 5.5 41.9
06:55 1017 30.03 846 24.98 15.2 59.3 52 5.5 42
07:00 1017 30.03 846 24.98 15.2 59.3 53 5.8 42.5
07:05 1017 30.03 846 24.98 15.4 59.7 52 5.7 42.3
07:10 1017 30.03 846 24.98 15.6 60.1 53 6.1 43
07:15 1016 30 846 24.98 15.4 59.8 53 6 42.8
07:20 1017 30.03 846 24.98 15.5 59.9 53 6.2 43.1
07:25 1016 30 846 24.98 16.1 60.9 51 5.9 42.7
07:30 1016 30 846 24.98 16.4 61.6 50 5.9 42.7
07:35 1016 30 846 24.98 16.6 62 49 5.9 42.7
07:40 1016 30 846 24.98 17 62.6 48 6.2 43.1
07:45 1016 30 846 24.98 17.5 63.6 46 6 42.8
07:50 1016 30 846 24.98 17.5 63.5 49 6.7 44.1
07:55 1016 30 846 24.98 17.9 64.1 48 6.8 44.2
08:00 1016 30 846 24.98 18.3 65 45 6.4 43.5
08:05 1016 30 846 24.98 18.8 65.8 45 6.7 44.1
08:10 1016 30 846 24.98 19.2 66.5 45 6.9 44.5
08:15 1016 30 846 24.98 19.2 66.5 44 6.8 44.2
08:20 1016 30 846 24.98 19.1 66.4 46 7.3 45.1
08:25 1016 30 846 24.98 19.4 66.8 46 7.7 45.8
08:30 1016 30 846 24.98 19.3 66.8 43 6.7 44.1
08:35 1016 30 845 24.95 19.5 67.1 44 7 44.7
08:40 1016 30 845 24.95 20.2 68.3 44 7.6 45.6
08:45 1016 30 846 24.98 20.5 69 39 6.3 43.3
08:50 1016 30 845 24.95 21.1 69.9 37 5.9 42.7
08:55 1016 30 845 24.95 21.4 70.5 38 6.6 43.9
09:00 1016 30 845 24.95 21.5 70.7 38 6.7 44
09:05 1016 30 845 24.95 21.8 71.3 35 6.1 42.9
09:10 1016 30 845 24.95 22 71.5 37 6.7 44.1
09:15 1016 30 845 24.95 22.2 72 35 6.3 43.3
09:20 1016 30 845 24.95 22.3 72.2 37 7.1 44.7
09:25 1016 30 845 24.95 22.6 72.6 36 7.1 44.7
09:30 1016 30 845 24.95 22.6 72.7 37 7.4 45.4
09:35 1016 30 845 24.95 23 73.4 35 7 44.5
09:40 1016 30 845 24.95 23.3 74 35 7.3 45.1
09:45 1016 30 845 24.95 22.7 72.9 38 8 46.5
09:50 1016 30 845 24.95 23 73.4 36 7.5 45.5
09:55 1016 30 845 24.95 23.3 74 38 8.2 46.8
10:00 1016 30 845 24.95 23.4 74.2 36 7.8 46.1
10:05 1016 30 845 24.95 23.3 74 37 7.9 46.3
10:10 1016 30 845 24.95 22.9 73.3 37 7.6 45.7
10:15 1016 30 845 24.95 23.3 74 36 7.6 45.6
10:20 1016 30 845 24.95 23.9 75 35 7.6 45.6
10:25 1016 30 845 24.95 24.3 75.7 35 8 46.3
10:30 1016 30 845 24.95 24.2 75.5 35 8 46.4
10:35 1016 30 845 24.95 24.5 76.1 34 8 46.5
10:40 1016 30 845 24.95 24.8 76.7 33 7.7 45.8
10:45 1015 29.97 845 24.95 25.4 77.7 32 7.9 46.2
10:50 1015 29.97 845 24.95 26.2 79.1 31 8 46.3
10:55 1016 30 845 24.95 26.2 79.2 31 8.3 46.9
11:00 1016 30 845 24.95 26 78.7 32 8.3 46.9
11:05 1016 30 845 24.95 25.7 78.2 33 8.3 47
11:10 1016 30 845 24.95 25.6 78.2 33 8.4 47.1
11:15 1016 30 845 24.95 25.6 78 32 8.1 46.6
11:20 1016 30 845 24.95 25.9 78.6 35 9.3 48.7
11:25 1016 30 845 24.95 25.5 77.8 35 9.1 48.3
11:30 1016 30 845 24.95 25.9 78.7 33 8.8 47.8
11:35 1016 30 845 24.95 26.4 79.5 32 8.8 47.8
11:40 1016 30 845 24.95 25.9 78.6 32 8 46.4
11:45 1016 30 845 24.95 26.1 79.1 30 7.7 45.9
11:50 1016 30 845 24.95 26.1 78.9 30 7.5 45.6
11:55 1016 30 845 24.95 27.2 81 28 7.4 45.3
12:00 1016 30 845 24.95 27.7 81.9 28 7.6 45.7
12:05 1016 30 845 24.95 27.8 82 28 8 46.4
12:10 1016 30 845 24.95 28 82.4 28 7.9 46.1
12:15 1015 29.97 845 24.95 28 82.5 28 8.2 46.7
12:20 1015 29.97 845 24.95 28.1 82.5 31 9.8 49.6
12:25 1015 29.97 845 24.95 27.9 82.3 31 9.3 48.8
12:30 1015 29.97 845 24.95 28.3 82.9 30 9.2 48.6
12:35 1015 29.97 844 24.92 28.5 83.3 30 9.6 49.3
12:40 1015 29.97 844 24.92 28.4 83.1 29 9 48.2
12:45 1015 29.97 844 24.92 28 82.4 29 8.7 47.7
12:50 1015 29.97 844 24.92 28.1 82.5 28 8 46.4
12:55 1015 29.97 844 24.92 28.7 83.7 26 7.4 45.3
13:00 1015 29.97 844 24.92 29.3 84.8 26 8.3 47
13:05 1015 29.97 844 24.92 29.9 85.9 25 8.3 46.9
13:10 1015 29.97 844 24.92 29.9 85.8 25 8.2 46.7
13:15 1015 29.97 844 24.92 29.2 84.5 25 7.3 45.1
13:20 1015 29.97 844 24.92 29.2 84.6 24 7 44.6
13:25 1014 29.94 844 24.92 29.7 85.5 25 7.9 46.3
13:30 1014 29.94 844 24.92 29.8 85.7 24 7.6 45.7
13:35 1014 29.94 843 24.89 29.6 85.2 24 7.1 44.8
13:40 1014 29.94 843 24.89 29.5 85.1 24 7.2 44.9
13:45 1014 29.94 843 24.89 29.4 84.8 25 7.4 45.4
13:50 1014 29.94 843 24.89 29.5 85.1 24 7.4 45.4
13:55 1014 29.94 843 24.89 28.6 83.5 25 7 44.7
14:00 1014 29.94 843 24.89 29.2 84.5 23 6.4 43.6
14:05 1014 29.94 843 24.89 29.7 85.4 23 6.5 43.7
14:10 1014 29.94 843 24.89 29.6 85.3 23 6.7 44
14:15 1014 29.94 843 24.89 28.7 83.7 24 6.5 43.7
14:20 1014 29.94 843 24.89 28.3 83 23 5.6 42
14:25 1014 29.94 843 24.89 28.4 83.1 24 6.1 43
14:30 1014 29.94 843 24.89 28.1 82.6 24 5.7 42.3
14:35 1014 29.94 843 24.89 27.8 82 24 5.7 42.3
14:40 1014 29.94 843 24.89 27 80.6 29 7.6 45.6
14:45 1014 29.94 843 24.89 25.7 78.2 28 5.9 42.6
14:50 1014 29.94 843 24.89 25.6 78 28 5.8 42.5
14:55 1014 29.94 843 24.89 25.5 77.9 27 5.6 42.2
15:00 1014 29.94 843 24.89 24.9 76.7 29 5.7 42.3
15:05 1014 29.94 843 24.89 24.5 76.2 29 5.3 41.6
15:10 1014 29.94 843 24.89 24.7 76.4 28 5.1 41.3
15:15 1014 29.94 843 24.89 25 77.1 27 4.8 40.6
15:20 1014 29.94 843 24.89 25.4 77.7 26 4.9 40.9
15:25 1014 29.94 843 24.89 25.9 78.7 26 5.2 41.4
15:30 1014 29.94 843 24.89 26 78.8 26 5.4 41.8
15:35 1014 29.94 843 24.89 25.8 78.4 28 6.4 43.5
15:40 1014 29.94 843 24.89 25.4 77.6 31 7.3 45.1
15:45 1014 29.94 843 24.89 25.2 77.4 31 7.1 44.7
15:50 1014 29.94 843 24.89 25.1 77.2 33 8.2 46.7
15:55 1014 29.94 843 24.89 25.2 77.4 32 7.5 45.5
16:00 1014 29.94 843 24.89 25.5 77.8 27 5.4 41.8
16:05 1014 29.94 843 24.89 25.8 78.5 28 6 42.8
16:10 1014 29.94 843 24.89 26 78.8 26 5.4 41.7
16:15 1014 29.94 843 24.89 26.1 79 26 5.2 41.4
16:20 1014 29.94 843 24.89 26.1 79 27 6 42.9
16:25 1014 29.94 843 24.89 26.7 80.1 26 6 42.8
16:30 1014 29.94 843 24.89 26.8 80.2 23 4.4 40
16:35 1013 29.91 843 24.89 26.5 79.7 22 3.1 37.6
16:40 1013 29.91 843 24.89 26.6 79.8 22 3.2 37.8
16:45 1013 29.91 843 24.89 26.6 79.9 23 3.9 39
16:50 1013 29.91 843 24.89 26.5 79.7 25 5.2 41.4
16:55 1014 29.94 843 24.89 26.7 80.1 26 5.9 42.6
17:00 1014 29.94 843 24.89 26.6 79.9 28 6.8 44.2
17:05 1014 29.94 843 24.89 25.9 78.6 30 7.3 45.2
17:10 1014 29.94 843 24.89 25.1 77.3 32 7.4 45.4
17:15 1014 29.94 843 24.89 25.3 77.5 31 7.1 44.8
17:20 1013 29.91 843 24.89 25.3 77.5 30 6.8 44.3
17:25 1014 29.94 843 24.89 25 76.9 31 6.8 44.3
17:30 1013 29.91 843 24.89 24.8 76.7 37 9.2 48.6
17:35 1013 29.91 843 24.89 24.7 76.5 36 8.7 47.6
17:40 1013 29.91 843 24.89 24.6 76.2 38 9.5 49.2
17:45 1013 29.91 842 24.86 24.5 76.1 33 7.5 45.5
17:50 1013 29.91 842 24.86 25 76.9 27 4.7 40.5
17:55 1013 29.91 842 24.86 25.1 77.2 31 6.8 44.3
18:00 1013 29.91 842 24.86 25.1 77.2 31 7.1 44.7
18:05 1013 29.91 842 24.86 25.2 77.4 29 6.3 43.4
18:10 1013 29.91 842 24.86 25.3 77.5 29 6.1 42.9
18:15 1013 29.91 843 24.89 25.3 77.6 28 5.9 42.7
18:20 1013 29.91 843 24.89 25.5 77.8 29 6.5 43.7
18:25 1014 29.94 843 24.89 25.4 77.7 28 5.9 42.7
18:30 1014 29.94 843 24.89 25.2 77.3 29 5.9 42.6
18:35 1014 29.94 843 24.89 25 77 28 5.7 42.2
18:40 1014 29.94 843 24.89 25 77 29 5.9 42.5
18:45 1014 29.94 844 24.92 24.8 76.6 30 6.2 43.2
18:50 1015 29.97 844 24.92 24.3 75.8 32 6.8 44.2
18:55 1015 29.97 844 24.92 23.1 73.5 42 9.5 49.2
19:00 1015 29.97 844 24.92 21.5 70.7 47 10 50
19:05 1015 29.97 845 24.95 20.6 69.2 51 10.2 50.3
19:10 1015 29.97 844 24.92 20.4 68.7 54 10.9 51.5
19:15 1014 29.94 843 24.89 20.2 68.4 38 5.7 42.3
19:20 1014 29.94 843 24.89 20.7 69.3 49 9.8 49.6
19:25 1014 29.94 843 24.89 20 68 51 9.7 49.4
19:30 1014 29.94 843 24.89 20.1 68.2 49 9.1 48.4
19:35 1014 29.94 844 24.92 20.2 68.4 51 9.8 49.7
19:40 1014 29.94 844 24.92 19.7 67.4 57 11 51.8
19:45 1014 29.94 844 24.92 19.2 66.5 59 11.1 52
19:50 1015 29.97 844 24.92 19.2 66.5 59 11.1 52
19:55 1015 29.97 844 24.92 19.4 66.8 59 11.1 52
20:00 1015 29.97 844 24.92 19.5 67.1 59 11.4 52.5
20:05 1015 29.97 844 24.92 19.6 67.2 58 11.1 52
20:10 1015 29.97 844 24.92 19.2 66.6 60 11.5 52.6
20:15 1014 29.94 844 24.92 19.1 66.3 60 11.2 52.1
20:20 1014 29.94 844 24.92 19 66.1 59 11 51.7
20:25 1014 29.94 844 24.92 18.9 66.1 58 10.5 50.9
20:30 1014 29.94 844 24.92 19.2 66.5 54 9.9 49.8
20:35 1014 29.94 844 24.92 19.3 66.8 56 10.3 50.6
20:40 1014 29.94 844 24.92 19.2 66.5 57 10.7 51.2
20:45 1015 29.97 844 24.92 19 66.2 58 10.7 51.3
20:50 1014 29.94 844 24.92 19 66.3 57 10.4 50.6
20:55 1015 29.97 844 24.92 19.2 66.5 55 10.2 50.3
21:00 1015 29.97 844 24.92 19.2 66.6 56 10.3 50.6
21:05 1014 29.94 844 24.92 19.1 66.3 57 10.5 51
21:10 1015 29.97 844 24.92 18.9 66 58 10.6 51.1
21:15 1015 29.97 844 24.92 18.8 65.9 57 10.2 50.3
21:20 1015 29.97 844 24.92 19 66.2 54 9.5 49.1
21:25 1015 29.97 844 24.92 19.2 66.5 54 9.8 49.6
21:30 1015 29.97 844 24.92 19.1 66.4 54 9.8 49.7
21:35 1015 29.97 844 24.92 19.1 66.5 54 9.7 49.4
21:40 1015 29.97 844 24.92 19.2 66.6 54 9.8 49.6
21:45 1015 29.97 844 24.92 19.2 66.6 53 9.6 49.3
21:50 1015 29.97 844 24.92 19.2 66.6 54 9.9 49.8
21:55 1015 29.97 844 24.92 19 66.2 55 9.8 49.7
22:00 1015 29.97 844 24.92 18.9 66.1 55 9.8 49.6
22:05 1015 29.97 844 24.92 18.9 66.1 54 9.5 49.2
22:10 1015 29.97 844 24.92 18.9 66 54 9.5 49.1
22:15 1015 29.97 844 24.92 18.9 66 55 9.7 49.4
22:20 1015 29.97 844 24.92 18.9 66 54 9.4 48.9
22:25 1015 29.97 844 24.92 19 66.2 53 9.2 48.6
22:30 1015 29.97 844 24.92 19 66.2 53 9.3 48.8
22:35 1015 29.97 844 24.92 18.7 65.7 55 9.7 49.5
22:40 1015 29.97 844 24.92 18.5 65.2 57 9.8 49.6
22:45 1015 29.97 844 24.92 18.3 65 58 9.9 49.9
22:50 1015 29.97 844 24.92 18.2 64.8 58 9.8 49.7
22:55 1015 29.97 844 24.92 18.2 64.7 58 9.9 49.8
23:00 1015 29.97 844 24.92 18.2 64.7 58 9.8 49.6
23:05 1015 29.97 844 24.92 18.1 64.5 61 10.4 50.8
23:10 1015 29.97 844 24.92 17.9 64.1 60 10 50
23:15 1015 29.97 844 24.92 17.5 63.5 60 9.8 49.6
23:20 1015 29.97 844 24.92 17.5 63.5 60 9.7 49.5
23:25 1015 29.97 844 24.92 17.4 63.3 60 9.6 49.3
23:30 1015 29.97 844 24.92 17.3 63.1 60 9.5 49.1
23:35 1015 29.97 844 24.92 17.4 63.2 62 10 49.9
23:40 1015 29.97 844 24.92 17.4 63.3 59 9.5 49.1
23:45 1015 29.97 844 24.92 17.4 63.2 59 9.3 48.7
23:50 1015 29.97 844 24.92 17.5 63.6 58 9.3 48.7
23:55 1015 29.97 844 24.92 17.6 63.7 58 9.3 48.7
24:00 1015 29.97 844 24.92 17.4 63.3 59 9.3 48.7